Time;durP1;ratioP1;P1;durP2;ratioP2;P2;SDS_P1;SDS_P2;PMS_P1;PMS_P2;Temp;Humidity;BMP_temperature;BMP_pressure;BME280_temperature;BME280_humidity;BME280_pressure;Samples;Min_cycle;Max_cycle;Signal;HPM_P1;HPM_P2
2024/04/25 00:01:48;;;;;;;11.97;7.33;;;5.30;99.90;;;;;;5371338;26;20246;-79
2024/04/25 00:04:17;;;;;;;11.20;7.97;;;5.30;99.90;;;;;;5378479;26;20268;-80
2024/04/25 00:06:48;;;;;;;10.90;7.70;;;5.30;99.90;;;;;;5367501;26;20279;-79
2024/04/25 00:09:17;;;;;;;12.10;7.60;;;5.30;99.90;;;;;;5378843;26;20306;-80
2024/04/25 00:11:46;;;;;;;12.13;7.37;;;5.20;99.90;;;;;;5376156;26;20323;-78
2024/04/25 00:14:14;;;;;;;11.70;7.70;;;5.20;99.90;;;;;;5370545;26;20375;-79
2024/04/25 00:16:43;;;;;;;13.20;8.53;;;5.20;99.90;;;;;;5369547;26;20246;-80
2024/04/25 00:19:12;;;;;;;14.87;9.03;;;5.20;99.90;;;;;;5372642;26;20246;-80
2024/04/25 00:21:41;;;;;;;15.07;9.27;;;5.20;99.90;;;;;;5383095;26;20380;-79
2024/04/25 00:24:12;;;;;;;14.63;8.47;;;5.30;99.90;;;;;;5383322;26;20349;-80
2024/04/25 00:26:41;;;;;;;13.40;8.33;;;5.20;99.90;;;;;;5370520;26;20327;-79
2024/04/25 00:29:09;;;;;;;13.87;8.43;;;5.20;99.90;;;;;;5366620;26;20687;-78
2024/04/25 00:31:38;;;;;;;16.37;9.77;;;5.20;99.90;;;;;;5364177;26;20285;-79
2024/04/25 00:34:07;;;;;;;15.23;9.13;;;5.20;99.90;;;;;;5360663;26;20238;-78
2024/04/25 00:36:36;;;;;;;16.07;10.10;;;5.20;99.90;;;;;;5371313;26;20239;-78
2024/04/25 00:39:04;;;;;;;18.40;11.10;;;5.30;99.90;;;;;;5360848;26;20247;-78
2024/04/25 00:41:36;;;;;;;19.03;10.97;;;5.20;99.90;;;;;;5375059;26;20368;-78
2024/04/25 00:44:05;;;;;;;17.70;10.57;;;5.20;99.90;;;;;;5369287;26;20355;-80
2024/04/25 00:46:33;;;;;;;15.13;9.03;;;5.20;99.90;;;;;;5372929;26;20254;-78
2024/04/25 00:49:02;;;;;;;14.20;8.50;;;5.10;99.90;;;;;;5364055;26;20247;-79
2024/04/25 00:51:32;;;;;;;14.97;8.70;;;5.00;99.90;;;;;;5370094;26;20241;-78
2024/04/25 00:54:01;;;;;;;13.97;7.67;;;5.00;99.90;;;;;;5367125;26;20246;-81
2024/04/25 00:56:31;;;;;;;9.70;6.10;;;4.90;99.90;;;;;;5372485;26;20278;-80
2024/04/25 00:59:04;;;;;;;6.83;4.37;;;4.80;99.90;;;;;;5376669;26;20309;-79
2024/04/25 01:01:35;;;;;;;5.27;4.00;;;4.60;99.90;;;;;;5375156;26;20275;-79
2024/04/25 01:04:04;;;;;;;6.97;4.83;;;4.70;99.90;;;;;;5373454;26;20249;-79
2024/04/25 01:06:35;;;;;;;8.20;5.07;;;4.70;99.90;;;;;;5376188;26;20317;-80
2024/04/25 01:09:04;;;;;;;9.23;5.90;;;4.50;99.90;;;;;;5374199;26;20607;-79
2024/04/25 01:11:33;;;;;;;8.13;5.37;;;4.50;99.90;;;;;;5369886;26;20246;-81
2024/04/25 01:14:05;;;;;;;11.73;6.93;;;4.60;99.90;;;;;;5379033;26;20241;-80
2024/04/25 01:16:34;;;;;;;10.53;6.53;;;4.50;99.90;;;;;;5378953;26;20241;-80
2024/04/25 01:19:02;;;;;;;13.33;7.97;;;4.70;99.90;;;;;;5376864;26;20242;-79
2024/04/25 01:21:35;;;;;;;13.43;7.83;;;4.70;99.90;;;;;;5372955;26;20572;-80
2024/04/25 01:24:05;;;;;;;13.00;8.60;;;5.00;99.90;;;;;;5377654;26;20237;-81
2024/04/25 01:26:38;;;;;;;14.43;8.53;;;4.80;99.90;;;;;;5375726;26;20238;-79
2024/04/25 01:29:13;;;;;;;15.77;9.30;;;4.80;99.90;;;;;;5380750;26;20767;-80
2024/04/25 01:31:43;;;;;;;17.63;9.73;;;4.90;99.90;;;;;;5372546;26;20353;-79
2024/04/25 01:34:12;;;;;;;20.37;10.90;;;4.80;99.90;;;;;;5352280;26;20281;-80
2024/04/25 01:36:42;;;;;;;19.17;10.97;;;4.80;99.90;;;;;;5362385;26;20258;-79
2024/04/25 01:39:12;;;;;;;19.33;11.10;;;4.80;99.90;;;;;;5353615;26;20261;-81
2024/04/25 01:41:43;;;;;;;18.73;10.47;;;4.80;99.90;;;;;;5355303;26;20339;-79
2024/04/25 01:44:12;;;;;;;19.40;10.57;;;4.80;99.90;;;;;;5375672;26;20242;-79
2024/04/25 01:46:41;;;;;;;19.43;10.93;;;4.80;99.90;;;;;;5361627;26;20329;-79
2024/04/25 01:49:10;;;;;;;18.83;10.33;;;4.80;99.90;;;;;;5367576;26;20242;-80
2024/04/25 01:51:38;;;;;;;20.20;9.83;;;4.80;99.90;;;;;;5372375;26;20237;-78
2024/04/25 01:54:07;;;;;;;18.63;9.47;;;4.80;99.90;;;;;;5377851;26;20293;-78
2024/04/25 01:56:36;;;;;;;19.47;9.43;;;4.80;99.90;;;;;;5368593;26;20354;-77
2024/04/25 01:59:08;;;;;;;17.13;9.80;;;4.80;99.90;;;;;;5373314;26;20630;-79
2024/04/25 02:01:36;;;;;;;18.77;10.07;;;4.80;99.90;;;;;;5372181;26;20363;-80
2024/04/25 02:04:05;;;;;;;19.33;9.87;;;4.80;99.90;;;;;;5376599;26;20246;-81
2024/04/25 02:06:34;;;;;;;18.80;9.73;;;4.70;99.90;;;;;;5372239;26;20291;-79
2024/04/25 02:09:03;;;;;;;17.23;9.17;;;4.60;99.90;;;;;;5368544;26;20250;-78
2024/04/25 02:11:32;;;;;;;18.13;9.47;;;4.50;99.90;;;;;;5376115;26;20241;-78
2024/04/25 02:14:01;;;;;;;17.57;9.37;;;4.50;99.90;;;;;;5371840;26;20367;-79
2024/04/25 02:16:33;;;;;;;19.30;10.77;;;4.40;99.90;;;;;;5375991;26;20612;-79
2024/04/25 02:19:02;;;;;;;16.93;9.40;;;4.30;99.90;;;;;;5378413;26;20299;-79
2024/04/25 02:26:59;;;;;;;19.33;9.93;;;4.40;99.90;;;;;;5379824;26;20494;-79
2024/04/25 02:29:28;;;;;;;17.03;9.33;;;4.50;99.90;;;;;;5379567;26;20295;-81
2024/04/25 02:31:59;;;;;;;18.97;9.87;;;4.50;99.90;;;;;;5375656;26;20350;-80
2024/04/25 02:34:28;;;;;;;17.70;9.13;;;4.50;99.90;;;;;;5370329;26;20245;-79
2024/04/25 02:36:57;;;;;;;17.67;8.93;;;4.60;99.90;;;;;;5380512;26;20245;-79
2024/04/25 02:39:27;;;;;;;17.90;9.43;;;4.60;99.90;;;;;;5373750;26;20284;-79
2024/04/25 02:41:56;;;;;;;17.23;9.47;;;4.60;99.90;;;;;;5380777;26;20739;-80
2024/04/25 02:44:25;;;;;;;16.00;8.80;;;4.60;99.90;;;;;;5382673;26;20773;-80
2024/04/25 02:46:51;;;;;;;16.83;8.53;;;4.60;99.90;;;;;;5382758;26;20246;-78
2024/04/25 02:49:23;;;;;;;21.07;9.23;;;4.60;99.90;;;;;;5380036;26;20735;-80
2024/04/25 02:51:51;;;;;;;15.77;8.93;;;4.60;99.90;;;;;;5368616;26;20266;-80
2024/04/25 02:54:20;;;;;;;16.53;8.50;;;4.50;99.90;;;;;;5374780;26;20276;-79
2024/04/25 02:56:46;;;;;;;16.27;9.03;;;4.60;99.90;;;;;;5377000;26;20269;-80
2024/04/25 02:59:15;;;;;;;16.20;8.67;;;4.60;99.90;;;;;;5373964;26;20261;-79
2024/04/25 03:01:41;;;;;;;16.17;8.77;;;4.50;99.90;;;;;;5382213;26;20279;-80
2024/04/25 03:04:10;;;;;;;17.50;8.33;;;4.60;99.90;;;;;;5382327;26;20241;-78
2024/04/25 03:06:39;;;;;;;16.67;8.97;;;4.60;99.90;;;;;;5381247;26;20342;-78
2024/04/25 03:09:08;;;;;;;15.87;8.70;;;4.50;99.90;;;;;;5382316;26;20237;-80
2024/04/25 03:11:34;;;;;;;16.27;9.00;;;4.50;99.90;;;;;;5382532;26;20292;-80
2024/04/25 03:14:03;;;;;;;14.60;8.93;;;4.50;99.90;;;;;;5382416;26;20257;-80
2024/04/25 03:16:30;;;;;;;15.80;9.10;;;4.60;99.90;;;;;;5382169;26;20925;-80
2024/04/25 03:18:58;;;;;;;15.27;9.27;;;4.50;99.90;;;;;;5385076;26;20245;-79
2024/04/25 03:21:24;;;;;;;17.63;9.40;;;4.50;99.90;;;;;;5382250;26;20238;-79
2024/04/25 03:23:56;;;;;;;19.57;9.90;;;4.60;99.90;;;;;;5385020;26;20245;-80
2024/04/25 03:26:22;;;;;;;13.20;8.07;;;4.50;99.90;;;;;;5380004;26;20245;-79
2024/04/25 03:28:51;;;;;;;15.80;8.93;;;4.60;99.90;;;;;;5379148;26;20242;-81
2024/04/25 03:31:17;;;;;;;19.17;9.47;;;4.50;99.90;;;;;;5382672;26;20238;-81
2024/04/25 03:33:45;;;;;;;19.90;9.10;;;4.40;99.90;;;;;;5385676;26;20296;-81
2024/04/25 03:36:11;;;;;;;17.73;8.50;;;4.50;99.90;;;;;;5385567;26;20771;-81
2024/04/25 03:38:40;;;;;;;15.73;7.97;;;4.50;99.90;;;;;;5386116;26;20289;-80
2024/04/25 03:41:16;;;;;;;16.93;9.03;;;4.50;99.90;;;;;;5385136;26;20241;-81
2024/04/25 03:43:45;;;;;;;12.90;7.73;;;4.40;99.90;;;;;;5377302;26;20256;-81
2024/04/25 03:46:14;;;;;;;13.83;7.67;;;4.40;99.90;;;;;;5385259;26;20705;-82
2024/04/25 03:48:43;;;;;;;14.83;7.87;;;4.30;99.90;;;;;;5376601;26;20297;-83
2024/04/25 03:51:11;;;;;;;14.77;8.10;;;4.30;99.90;;;;;;5374408;26;20246;-83
2024/04/25 03:53:40;;;;;;;15.23;7.53;;;4.30;99.90;;;;;;5380140;26;20254;-79
2024/04/25 03:56:11;;;;;;;13.77;7.03;;;4.20;99.90;;;;;;5383135;26;20284;-79
2024/04/25 03:58:40;;;;;;;13.70;7.53;;;4.20;99.90;;;;;;5385301;26;20751;-81
2024/04/25 04:01:09;;;;;;;13.63;7.40;;;4.20;99.90;;;;;;5375146;26;20352;-81
2024/04/25 04:03:37;;;;;;;14.67;7.70;;;4.20;99.90;;;;;;5384832;26;20284;-82
2024/04/25 04:06:06;;;;;;;12.07;7.00;;;4.10;99.90;;;;;;5383713;26;20249;-83
2024/04/25 04:08:35;;;;;;;16.10;7.90;;;4.10;99.90;;;;;;5382010;26;20249;-80
2024/04/25 04:11:04;;;;;;;14.20;6.97;;;4.10;99.90;;;;;;5365156;26;20233;-80
2024/04/25 04:13:35;;;;;;;12.07;7.47;;;4.00;99.90;;;;;;5384119;26;20280;-80
2024/04/25 04:16:04;;;;;;;13.50;7.23;;;4.10;99.90;;;;;;5381414;26;20284;-82
2024/04/25 04:18:33;;;;;;;13.17;7.33;;;4.00;99.90;;;;;;5384748;26;20238;-80
2024/04/25 04:21:02;;;;;;;13.93;7.53;;;4.00;99.90;;;;;;5384985;26;20233;-80
2024/04/25 04:23:30;;;;;;;18.33;7.97;;;4.00;99.90;;;;;;5384011;26;20285;-80
2024/04/25 04:25:59;;;;;;;17.50;8.20;;;4.00;99.90;;;;;;5384374;26;20261;-81
2024/04/25 04:28:27;;;;;;;13.07;7.97;;;4.00;99.90;;;;;;5383375;26;20237;-79
2024/04/25 04:30:59;;;;;;;14.70;7.73;;;4.00;99.90;;;;;;5384371;26;20229;-80
2024/04/25 04:33:27;;;;;;;15.73;8.27;;;4.10;99.90;;;;;;5381475;26;20276;-81
2024/04/25 04:35:56;;;;;;;15.67;7.80;;;4.20;99.90;;;;;;5381575;26;20284;-80
2024/04/25 04:38:24;;;;;;;15.07;8.20;;;4.20;99.90;;;;;;5381512;26;20243;-81
2024/04/25 04:40:54;;;;;;;14.60;7.53;;;4.20;99.90;;;;;;5373173;26;20246;-81
2024/04/25 04:43:22;;;;;;;15.03;8.10;;;4.20;99.90;;;;;;5379629;26;20314;-80
2024/04/25 04:45:55;;;;;;;15.03;7.83;;;4.30;99.90;;;;;;5376949;26;20300;-81
2024/04/25 04:48:26;;;;;;;15.00;8.20;;;4.30;99.90;;;;;;5381899;26;20249;-80
2024/04/25 04:50:54;;;;;;;15.23;7.93;;;4.30;99.90;;;;;;5385578;26;20237;-81
2024/04/25 04:53:23;;;;;;;14.40;8.53;;;4.60;99.90;;;;;;5383811;26;20280;-81
2024/04/25 04:55:51;;;;;;;15.37;8.17;;;4.50;99.90;;;;;;5376641;26;20246;-83
2024/04/25 04:58:20;;;;;;;18.20;9.40;;;4.60;99.90;;;;;;5384989;26;20233;-81
2024/04/25 05:00:49;;;;;;;17.53;8.77;;;4.70;99.90;;;;;;5370079;26;20720;-80
2024/04/25 05:03:17;;;;;;;15.33;8.53;;;4.70;99.90;;;;;;5376410;26;20275;-81
2024/04/25 05:05:48;;;;;;;15.50;9.30;;;4.70;99.90;;;;;;5385442;26;20284;-82
2024/04/25 05:08:17;;;;;;;17.07;8.90;;;4.70;99.90;;;;;;5380366;26;20253;-81
2024/04/25 05:10:46;;;;;;;15.57;9.07;;;4.70;99.90;;;;;;5380779;26;20315;-81
2024/04/25 05:13:14;;;;;;;32.50;11.60;;;4.70;99.90;;;;;;5379699;26;20279;-83
2024/04/25 05:15:43;;;;;;;17.80;9.47;;;4.90;99.90;;;;;;5381827;26;20246;-82
2024/04/25 05:18:12;;;;;;;16.30;9.30;;;4.90;99.90;;;;;;5382425;26;20246;-80
2024/04/25 05:20:40;;;;;;;15.63;8.87;;;4.90;99.90;;;;;;5384291;26;20241;-80
2024/04/25 05:23:12;;;;;;;29.03;9.30;;;5.00;99.90;;;;;;5383326;26;20346;-82
2024/04/25 05:25:40;;;;;;;16.80;8.57;;;5.10;99.90;;;;;;5372261;26;20250;-81
2024/04/25 05:28:09;;;;;;;16.10;8.97;;;5.10;99.90;;;;;;5369395;26;20658;-81
2024/04/25 05:30:37;;;;;;;18.20;9.10;;;5.20;99.90;;;;;;5385734;26;20229;-81
2024/04/25 05:33:07;;;;;;;17.13;8.93;;;5.20;99.90;;;;;;5384309;26;20285;-81
2024/04/25 05:35:36;;;;;;;16.30;8.47;;;5.30;99.90;;;;;;5384894;26;20280;-82
2024/04/25 05:38:05;;;;;;;14.90;8.27;;;5.30;99.90;;;;;;5382535;26;20288;-81
2024/04/25 05:40:37;;;;;;;12.73;7.17;;;5.30;99.90;;;;;;5378339;26;20591;-81
2024/04/25 05:43:05;;;;;;;13.13;8.33;;;5.20;99.90;;;;;;5385177;26;20293;-83
2024/04/25 05:45:34;;;;;;;13.90;7.67;;;5.30;99.90;;;;;;5377232;26;20226;-82
2024/04/25 05:48:03;;;;;;;15.13;8.57;;;5.20;99.90;;;;;;5380507;26;20245;-80
2024/04/25 05:50:31;;;;;;;13.40;8.80;;;5.20;99.90;;;;;;5384005;26;20241;-80
2024/04/25 05:53:02;;;;;;;14.17;8.70;;;5.20;99.90;;;;;;5384553;26;20257;-83
2024/04/25 05:55:30;;;;;;;24.23;10.27;;;5.20;99.90;;;;;;5384390;26;20256;-83
2024/04/25 05:58:02;;;;;;;18.07;10.00;;;5.20;99.90;;;;;;5383170;26;20318;-82
2024/04/25 06:00:30;;;;;;;18.00;10.17;;;5.30;99.90;;;;;;5384779;26;20248;-83
2024/04/25 06:03:00;;;;;;;18.07;10.50;;;5.20;99.90;;;;;;5377540;26;20242;-82
2024/04/25 06:05:29;;;;;;;17.63;10.33;;;5.20;99.90;;;;;;5384070;26;20261;-82
2024/04/25 06:07:57;;;;;;;18.00;10.23;;;5.20;99.90;;;;;;5369323;26;20280;-80
2024/04/25 06:10:26;;;;;;;20.07;11.30;;;5.20;99.90;;;;;;5385571;26;20245;-81
2024/04/25 06:12:55;;;;;;;16.60;10.20;;;5.30;99.90;;;;;;5385151;26;20288;-80
2024/04/25 06:15:26;;;;;;;19.40;9.77;;;5.30;99.90;;;;;;5367740;26;20253;-81
2024/04/25 06:17:56;;;;;;;17.57;9.87;;;5.30;99.90;;;;;;5380244;26;20253;-82
2024/04/25 06:20:24;;;;;;;13.10;8.00;;;5.40;99.90;;;;;;5385026;26;20351;-81
2024/04/25 06:22:53;;;;;;;13.53;8.40;;;5.50;99.90;;;;;;5377790;26;20607;-82
2024/04/25 06:25:22;;;;;;;17.60;9.77;;;5.50;99.90;;;;;;5384615;26;20241;-80
2024/04/25 06:27:51;;;;;;;15.07;9.13;;;5.60;99.90;;;;;;5384628;26;20732;-83
2024/04/25 06:30:19;;;;;;;16.23;9.80;;;5.70;99.90;;;;;;5377497;26;20736;-83
2024/04/25 06:32:50;;;;;;;18.80;9.27;;;5.60;99.90;;;;;;5370324;26;20276;-81
2024/04/25 06:35:19;;;;;;;15.30;9.10;;;5.60;99.90;;;;;;5384365;26;21042;-81
2024/04/25 06:37:48;;;;;;;15.00;9.00;;;5.70;99.90;;;;;;5375788;26;20237;-83
2024/04/25 06:40:17;;;;;;;18.00;9.83;;;5.70;99.90;;;;;;5385622;26;20233;-81
2024/04/25 06:42:45;;;;;;;16.37;9.97;;;5.90;99.90;;;;;;5377151;26;20296;-81
2024/04/25 06:45:16;;;;;;;14.93;9.73;;;5.90;1.00;;;;;;5384605;26;20727;-81
2024/04/25 06:47:45;;;;;;;16.03;9.57;;;6.00;99.90;;;;;;5383604;26;20279;-80
2024/04/25 06:50:16;;;;;;;15.83;10.03;;;6.10;72.70;;;;;;5383455;26;20899;-82
2024/04/25 06:52:46;;;;;;;16.83;10.40;;;6.20;28.90;;;;;;5384361;26;20241;-83
2024/04/25 06:55:14;;;;;;;16.03;10.20;;;6.30;53.40;;;;;;5382442;26;20795;-81
2024/04/25 06:57:43;;;;;;;17.47;10.33;;;6.30;39.70;;;;;;5372862;26;20250;-82
2024/04/25 07:00:14;;;;;;;18.10;10.57;;;6.50;1.00;;;;;;5387838;26;20275;-83
2024/04/25 07:02:42;;;;;;;18.17;9.77;;;6.60;1.00;;;;;;5380773;26;20309;-83
2024/04/25 07:05:11;;;;;;;17.30;9.47;;;6.60;1.00;;;;;;5382420;26;20726;-84
2024/04/25 07:07:42;;;;;;;18.80;11.00;;;6.40;1.00;;;;;;5375297;26;20779;-82
2024/04/25 07:10:11;;;;;;;17.27;9.83;;;6.40;1.00;;;;;;5387056;26;20250;-83
2024/04/25 07:12:39;;;;;;;17.27;10.63;;;6.70;1.00;;;;;;5386749;26;20230;-82
2024/04/25 07:15:09;;;;;;;22.03;11.07;;;6.50;1.00;;;;;;5387342;26;20289;-81
2024/04/25 07:17:38;;;;;;;17.70;10.47;;;6.50;99.90;;;;;;5384027;26;20246;-81
2024/04/25 07:20:08;;;;;;;18.80;10.73;;;6.40;99.90;;;;;;5384944;26;20267;-81
2024/04/25 07:22:36;;;;;;;15.90;9.57;;;6.30;99.90;;;;;;5386385;26;20249;-80
2024/04/25 07:25:11;;;;;;;15.07;9.50;;;6.40;1.00;;;;;;5386990;26;20272;-81
2024/04/25 07:27:40;;;;;;;16.87;9.93;;;6.50;99.90;;;;;;5386376;26;20268;-81
2024/04/25 07:30:12;;;;;;;14.63;8.63;;;6.40;1.00;;;;;;5387079;26;20229;-81
2024/04/25 07:32:41;;;;;;;16.30;9.30;;;6.40;1.00;;;;;;5387349;26;20221;-81
2024/04/25 07:35:10;;;;;;;16.80;9.53;;;6.40;1.00;;;;;;5386684;26;20268;-81
2024/04/25 07:37:39;;;;;;;17.47;10.57;;;6.50;1.00;;;;;;5387786;26;20250;-82
2024/04/25 07:40:11;;;;;;;15.63;9.37;;;6.70;1.00;;;;;;5385701;26;20284;-83
2024/04/25 07:42:40;;;;;;;17.83;9.73;;;6.80;99.90;;;;;;5383275;26;20241;-82
2024/04/25 07:45:09;;;;;;;18.90;9.93;;;6.90;1.00;;;;;;5386115;26;20573;-81
2024/04/25 07:47:38;;;;;;;16.40;9.33;;;7.00;1.00;;;;;;5383009;26;20242;-80
2024/04/25 07:50:07;;;;;;;17.50;9.43;;;7.10;1.00;;;;;;5386282;26;20292;-81
2024/04/25 07:52:36;;;;;;;14.90;9.13;;;7.00;1.00;;;;;;5385362;26;20577;-81
2024/04/25 07:55:05;;;;;;;14.53;8.97;;;7.10;99.90;;;;;;5376618;26;20223;-83
2024/04/25 07:57:37;;;;;;;16.10;9.83;;;7.10;1.00;;;;;;5369996;26;20281;-80
2024/04/25 08:00:07;;;;;;;15.00;8.53;;;7.00;1.00;;;;;;5387869;26;20284;-80
2024/04/25 08:02:37;;;;;;;15.50;9.83;;;7.10;1.00;;;;;;5386386;26;20288;-81
2024/04/25 08:05:07;;;;;;;18.40;11.90;;;7.40;1.00;;;;;;5379767;26;20350;-82
2024/04/25 08:07:37;;;;;;;14.30;8.93;;;7.60;99.90;;;;;;5387562;26;20229;-82
2024/04/25 08:10:06;;;;;;;15.50;9.00;;;7.60;53.20;;;;;;5378435;26;20291;-83
2024/04/25 08:12:37;;;;;;;17.40;9.00;;;7.50;1.00;;;;;;5381108;26;20575;-84
2024/04/25 08:15:06;;;;;;;16.50;9.30;;;7.70;1.00;;;;;;5386913;26;20307;-82
2024/04/25 08:17:36;;;;;;;14.43;8.83;;;7.70;1.00;;;;;;5386498;26;20238;-82
2024/04/25 08:20:05;;;;;;;11.97;7.90;;;7.90;1.00;;;;;;5384095;26;20292;-82
2024/04/25 08:22:34;;;;;;;14.93;8.43;;;7.80;99.90;;;;;;5376672;26;20273;-82
2024/04/25 08:25:03;;;;;;;14.67;8.53;;;7.90;99.90;;;;;;5384982;26;20233;-82
2024/04/25 08:27:31;;;;;;;13.70;6.83;;;7.90;99.90;;;;;;5386301;26;20249;-81
2024/04/25 08:30:03;;;;;;;10.80;6.93;;;7.90;1.00;;;;;;5386110;26;20731;-81
2024/04/25 08:32:31;;;;;;;13.27;7.57;;;7.90;8.00;;;;;;5385801;26;20234;-82
2024/04/25 08:35:00;;;;;;;12.10;7.63;;;7.70;1.00;;;;;;5373875;26;20242;-81
2024/04/25 08:37:28;;;;;;;13.60;7.83;;;7.70;1.00;;;;;;5385124;26;20774;-81
2024/04/25 08:39:57;;;;;;;12.23;8.00;;;7.80;1.00;;;;;;5386877;26;20233;-82
2024/04/25 08:42:26;;;;;;;9.53;7.17;;;7.90;1.00;;;;;;5384989;26;20289;-81
2024/04/25 08:44:55;;;;;;;11.90;7.00;;;8.10;1.00;;;;;;5385767;26;20229;-81
2024/04/25 08:47:27;;;;;;;13.03;7.50;;;8.30;1.00;;;;;;5385219;26;20618;-80
2024/04/25 08:49:58;;;;;;;12.07;7.47;;;8.20;99.90;;;;;;5385289;26;21052;-81
2024/04/25 08:52:30;;;;;;;17.40;7.60;;;8.20;99.90;;;;;;5379920;26;20226;-80
2024/04/25 08:54:59;;;;;;;11.80;7.67;;;8.40;1.00;;;;;;5379877;26;20227;-82
2024/04/25 08:57:29;;;;;;;10.33;7.33;;;8.40;1.00;;;;;;5377546;26;20234;-82
2024/04/25 08:59:58;;;;;;;11.37;7.20;;;8.50;1.00;;;;;;5385346;26;20732;-82
2024/04/25 09:02:31;;;;;;;12.73;7.53;;;8.50;1.00;;;;;;5385347;26;20254;-82
2024/04/25 09:05:00;;;;;;;10.60;7.80;;;8.40;1.00;;;;;;5378838;26;20265;-82
2024/04/25 09:07:29;;;;;;;10.47;7.90;;;8.50;1.00;;;;;;5380201;26;20237;-80
2024/04/25 09:09:57;;;;;;;10.10;7.00;;;8.80;1.00;;;;;;5370664;26;20249;-82
2024/04/25 09:12:31;;;;;;;11.07;6.70;;;9.10;1.00;;;;;;5385154;26;20241;-82
2024/04/25 09:15:00;;;;;;;9.77;6.00;;;9.50;99.90;;;;;;5384065;26;20249;-81
2024/04/25 09:17:32;;;;;;;10.10;6.23;;;9.60;99.90;;;;;;5385494;26;20285;-82
2024/04/25 09:20:00;;;;;;;10.77;6.80;;;9.50;92.90;;;;;;5384494;26;20284;-83
2024/04/25 09:22:29;;;;;;;11.07;6.57;;;9.40;1.00;;;;;;5383541;26;20249;-82
2024/04/25 09:24:57;;;;;;;10.30;6.30;;;9.40;1.00;;;;;;5370095;26;20276;-83
2024/04/25 09:27:26;;;;;;;8.70;6.30;;;9.50;1.00;;;;;;5384438;26;20233;-82
2024/04/25 09:29:55;;;;;;;11.33;6.73;;;9.50;1.00;;;;;;5384680;26;20238;-82
2024/04/25 09:32:24;;;;;;;13.73;7.27;;;9.40;1.00;;;;;;5383591;26;20296;-82
2024/04/25 09:34:55;;;;;;;10.97;6.60;;;9.20;1.00;;;;;;5383542;26;20284;-80
2024/04/25 09:37:24;;;;;;;10.67;6.47;;;9.10;1.00;;;;;;5375014;26;20225;-81
2024/04/25 09:39:53;;;;;;;13.03;6.77;;;9.10;1.00;;;;;;5384677;26;20280;-81
2024/04/25 09:42:22;;;;;;;10.60;6.97;;;9.10;1.00;;;;;;5382037;26;20626;-81
2024/04/25 09:44:51;;;;;;;11.27;6.60;;;8.80;1.00;;;;;;5376348;26;20250;-80
2024/04/25 09:47:28;;;;;;;7.97;5.90;;;8.90;1.00;;;;;;5383333;26;20331;-81
2024/04/25 09:50:07;;;;;;;10.57;6.20;;;9.10;1.00;;;;;;5364656;26;20250;-82
2024/04/25 09:52:40;;;;;;;5.17;4.03;;;9.10;50.00;;;;;;5377313;26;20334;-81
2024/04/25 09:55:11;;;;;;;5.47;4.10;;;8.20;99.90;;;;;;5356577;26;20225;-81
2024/04/25 09:57:43;;;;;;;4.47;3.20;;;8.40;99.90;;;;;;5385480;26;20257;-83
2024/04/25 10:00:15;;;;;;;4.50;2.53;;;8.30;1.00;;;;;;5378565;26;20292;-83
2024/04/25 10:02:46;;;;;;;3.60;3.03;;;8.50;99.90;;;;;;5380205;26;20241;-82
2024/04/25 10:05:17;;;;;;;3.60;2.70;;;8.90;99.90;;;;;;5382820;26;20245;-82
2024/04/25 10:07:48;;;;;;;4.50;3.03;;;9.80;99.90;;;;;;5383450;26;20296;-83
2024/04/25 10:10:17;;;;;;;4.10;3.67;;;10.30;81.90;;;;;;5384686;26;20251;-82
2024/04/25 10:12:53;;;;;;;4.23;3.70;;;11.20;1.00;;;;;;5382224;26;20590;-80
2024/04/25 10:15:28;;;;;;;3.70;2.13;;;11.00;1.00;;;;;;5383772;26;20279;-83
2024/04/25 10:17:57;;;;;;;1.33;1.20;;;9.80;1.00;;;;;;5382680;26;20281;-82
2024/04/25 10:20:28;;;;;;;2.90;1.00;;;8.60;1.00;;;;;;5383031;26;20267;-83
2024/04/25 10:22:58;;;;;;;2.93;1.03;;;8.00;99.90;;;;;;5384500;26;20245;-82
2024/04/25 10:25:27;;;;;;;2.03;1.10;;;7.80;99.90;;;;;;5384017;26;20560;-81
2024/04/25 10:27:59;;;;;;;4.73;1.40;;;7.20;99.90;;;;;;5384752;26;20273;-81
2024/04/25 10:30:28;;;;;;;3.47;1.33;;;6.80;1.00;;;;;;5386631;26;20244;-80
2024/04/25 10:32:57;;;;;;;5.97;1.30;;;6.70;1.00;;;;;;5387172;26;20238;-81
2024/04/25 10:35:36;;;;;;;1.80;1.10;;;6.70;1.00;;;;;;5371586;26;20229;-80
2024/04/25 10:38:05;;;;;;;2.80;1.03;;;6.80;1.00;;;;;;5386767;26;20229;-82
2024/04/25 10:40:33;;;;;;;2.33;1.30;;;7.20;99.90;;;;;;5388138;26;20276;-80
2024/04/25 10:43:02;;;;;;;2.90;1.40;;;7.20;1.00;;;;;;5376479;26;20234;-80
2024/04/25 10:45:31;;;;;;;4.27;1.50;;;7.00;1.00;;;;;;5364296;26;21004;-81
2024/04/25 10:48:01;;;;;;;1.87;1.30;;;7.00;99.90;;;;;;5387714;26;20234;-80
2024/04/25 10:50:32;;;;;;;4.50;2.70;;;7.10;63.50;;;;;;5377027;26;20257;-81
2024/04/25 10:53:01;;;;;;;1.90;1.30;;;7.40;99.90;;;;;;5388004;26;20218;-82
2024/04/25 10:55:30;;;;;;;1.50;1.37;;;7.30;1.00;;;;;;5387695;26;20248;-81
2024/04/25 10:57:59;;;;;;;2.23;1.33;;;7.40;1.00;;;;;;5387994;26;20233;-81
2024/04/25 11:00:28;;;;;;;2.77;1.37;;;7.70;1.00;;;;;;5387922;26;20611;-81
2024/04/25 11:03:00;;;;;;;2.93;1.33;;;7.70;1.00;;;;;;5387925;26;20767;-81
2024/04/25 11:05:31;;;;;;;3.17;1.63;;;7.60;99.90;;;;;;5388044;26;20252;-81
2024/04/25 11:08:00;;;;;;;2.53;1.70;;;7.50;1.00;;;;;;5386337;26;20250;-80
2024/04/25 11:10:30;;;;;;;2.87;1.90;;;7.60;1.00;;;;;;5389863;26;20294;-81
2024/04/25 11:13:01;;;;;;;3.67;2.20;;;7.80;1.00;;;;;;5369770;26;20783;-82
2024/04/25 11:15:31;;;;;;;3.03;2.13;;;7.90;1.00;;;;;;5385444;26;20249;-80
2024/04/25 11:18:02;;;;;;;3.37;2.30;;;8.50;1.00;;;;;;5384089;26;20288;-80
2024/04/25 11:20:33;;;;;;;4.03;2.93;;;9.00;1.00;;;;;;5378059;26;20824;-82
2024/04/25 11:23:11;;;;;;;5.03;2.80;;;9.10;1.00;;;;;;5387045;26;20276;-82
2024/04/25 11:25:40;;;;;;;4.10;2.90;;;9.60;99.90;;;;;;5387204;26;20635;-82
2024/04/25 11:28:09;;;;;;;5.17;3.00;;;9.70;1.00;;;;;;5387074;26;20246;-81
2024/04/25 11:30:38;;;;;;;3.77;2.87;;;9.50;99.90;;;;;;5386831;26;20624;-81
2024/04/25 11:33:07;;;;;;;4.27;2.87;;;9.20;1.00;;;;;;5385903;26;20723;-81
2024/04/25 11:35:38;;;;;;;4.70;3.17;;;9.10;1.00;;;;;;5386850;26;20222;-82
2024/04/25 11:38:07;;;;;;;6.63;2.60;;;9.40;1.00;;;;;;5385419;26;20289;-81
2024/04/25 11:40:39;;;;;;;3.37;2.33;;;9.60;1.00;;;;;;5386272;26;20284;-81
2024/04/25 11:43:08;;;;;;;6.97;3.40;;;9.60;1.00;;;;;;5385028;26;20284;-82
2024/04/25 11:45:38;;;;;;;3.93;2.80;;;9.70;1.00;;;;;;5376333;26;20257;-82
2024/04/25 11:48:09;;;;;;;6.13;2.83;;;10.10;99.90;;;;;;5381785;26;20330;-82
2024/04/25 11:50:41;;;;;;;3.77;2.43;;;10.20;1.00;;;;;;5376675;26;20318;-82
2024/04/25 11:53:09;;;;;;;3.07;2.03;;;10.50;1.00;;;;;;5386358;26;20284;-81
2024/04/25 11:55:38;;;;;;;3.93;2.20;;;10.70;1.00;;;;;;5382844;26;20257;-82
2024/04/25 11:58:07;;;;;;;7.33;2.40;;;10.40;99.90;;;;;;5384180;26;20245;-81
2024/04/25 12:00:36;;;;;;;3.90;2.23;;;10.00;98.90;;;;;;5383836;26;20269;-81
2024/04/25 12:03:04;;;;;;;3.87;2.27;;;9.70;99.90;;;;;;5368319;26;20233;-81
2024/04/25 12:05:34;;;;;;;6.03;2.20;;;9.50;99.90;;;;;;5385657;26;20218;-82
2024/04/25 12:08:06;;;;;;;4.70;1.67;;;9.40;40.80;;;;;;5382337;26;20237;-79
2024/04/25 12:10:35;;;;;;;4.23;1.70;;;9.10;99.90;;;;;;5378890;26;20237;-80
2024/04/25 12:13:07;;;;;;;6.43;1.90;;;9.20;99.90;;;;;;5387419;26;20762;-80
2024/04/25 12:15:38;;;;;;;5.00;2.60;;;9.10;99.90;;;;;;5372687;26;20233;-81
2024/04/25 12:18:07;;;;;;;6.07;2.53;;;8.90;99.90;;;;;;5385511;26;20235;-79
2024/04/25 12:20:36;;;;;;;4.20;2.03;;;8.40;99.90;;;;;;5384067;26;20614;-81
2024/04/25 12:23:09;;;;;;;4.67;2.50;;;8.40;1.00;;;;;;5369958;26;20237;-79
2024/04/25 12:25:38;;;;;;;4.97;2.10;;;7.90;1.00;;;;;;5384071;26;20344;-79
2024/04/25 12:28:07;;;;;;;3.90;1.63;;;7.60;1.00;;;;;;5383317;26;20253;-80
2024/04/25 12:30:37;;;;;;;3.03;1.97;;;7.60;1.00;;;;;;5384388;26;20296;-81
2024/04/25 12:33:06;;;;;;;7.07;1.97;;;7.70;1.00;;;;;;5382012;26;20670;-81
2024/04/25 12:35:36;;;;;;;3.60;1.60;;;7.80;99.90;;;;;;5386215;26;20250;-85
2024/04/25 12:38:08;;;;;;;5.93;1.70;;;7.90;99.90;;;;;;5385378;26;20288;-82
2024/04/25 12:40:37;;;;;;;4.23;1.70;;;8.20;1.00;;;;;;5386444;26;20285;-81
2024/04/25 12:43:08;;;;;;;2.93;1.97;;;8.70;1.00;;;;;;5386212;26;20778;-82
2024/04/25 12:45:39;;;;;;;5.37;2.47;;;9.10;99.90;;;;;;5386634;26;20283;-82
2024/04/25 12:48:11;;;;;;;7.70;3.63;;;9.20;1.00;;;;;;5386162;26;20233;-81
2024/04/25 12:50:39;;;;;;;8.40;2.67;;;10.00;1.00;;;;;;5374106;26;20280;-80
2024/04/25 12:53:11;;;;;;;6.50;2.23;;;10.20;1.00;;;;;;5386008;26;20288;-81
2024/04/25 12:55:41;;;;;;;4.43;2.47;;;10.40;1.00;;;;;;5371260;26;20253;-81
2024/04/25 12:58:10;;;;;;;7.40;3.57;;;10.60;1.00;;;;;;5384939;26;20280;-81
2024/04/25 13:00:41;;;;;;;4.63;2.50;;;10.70;99.90;;;;;;5385444;26;20280;-81
2024/04/25 13:03:11;;;;;;;3.70;2.40;;;10.60;99.90;;;;;;5380542;26;20258;-82
2024/04/25 13:05:40;;;;;;;4.83;2.97;;;10.80;99.90;;;;;;5387487;26;20822;-81
2024/04/25 13:08:18;;;;;;;5.17;3.13;;;11.10;99.90;;;;;;5385945;26;20271;-81